createdAt,value
2022-08-26T00:01:00.273Z,40.22
2022-08-26T00:06:02.038Z,36.13
2022-08-26T00:11:04.328Z,41.22
2022-08-26T00:16:07.824Z,40.67
2022-08-26T00:21:11.033Z,36.20
2022-08-26T00:26:13.592Z,43.63
2022-08-26T00:31:15.525Z,46.03
2022-08-26T00:36:20.012Z,41.33
2022-08-26T00:41:22.253Z,41.00
2022-08-26T00:46:28.983Z,47.95
2022-08-26T00:51:31.273Z,38.33
2022-08-26T00:56:56.725Z,36.35
2022-08-26T01:01:58.469Z,34.17
2022-08-26T01:07:00.813Z,33.83
2022-08-26T01:12:03.477Z,33.58
2022-08-26T01:17:07.476Z,32.90
2022-08-26T01:22:28.223Z,42.45
2022-08-26T01:27:32.963Z,40.85
2022-08-26T01:32:36.397Z,35.33
2022-08-26T01:37:41.312Z,51.00
2022-08-26T01:42:43.825Z,44.55
2022-08-26T01:47:47.490Z,41.92
2022-08-26T01:52:54.507Z,39.75
2022-08-26T01:57:57.456Z,35.60
2022-08-26T02:03:17.630Z,41.47
2022-08-26T02:08:24.784Z,39.25
2022-08-26T02:13:31.399Z,35.88
2022-08-26T02:18:36.238Z,37.90
2022-08-26T02:23:39.934Z,35.28
2022-08-26T02:28:56.479Z,41.00
2022-08-26T02:34:12.960Z,35.13
2022-08-26T02:39:21.927Z,31.73
2022-08-26T02:44:24.065Z,47.95
2022-08-26T02:49:28.033Z,37.53
2022-08-26T02:54:29.742Z,36.33
2022-08-26T02:59:32.246Z,29.55
2022-08-26T03:04:33.991Z,33.97
2022-08-26T03:09:35.761Z,38.05
2022-08-26T03:14:37.882Z,36.10
2022-08-26T03:19:39.539Z,34.35
2022-08-26T03:24:46.034Z,33.25
2022-08-26T03:30:06.430Z,33.53
2022-08-26T03:35:09.097Z,37.78
2022-08-26T03:40:11.736Z,37.92
2022-08-26T03:45:15.448Z,35.35
2022-08-26T03:50:22.987Z,41.20
2022-08-26T03:55:31.107Z,36.65
2022-08-26T04:00:32.757Z,38.10
2022-08-26T04:05:36.136Z,44.55
2022-08-26T04:10:38.443Z,41.47
2022-08-26T04:15:40.078Z,36.42
2022-08-26T04:20:41.732Z,32.72
2022-08-26T04:25:43.440Z,38.60
2022-08-26T04:30:45.150Z,39.90
2022-08-26T04:35:47.830Z,33.15
2022-08-26T04:40:49.546Z,37.65
2022-08-26T04:45:51.402Z,34.88
2022-08-26T04:50:53.348Z,33.33
2022-08-26T04:55:55.430Z,32.95
2022-08-26T05:00:57.145Z,34.92
2022-08-26T05:05:58.854Z,33.08
2022-08-26T05:11:05.029Z,35.17
2022-08-26T05:16:11.589Z,28.95
2022-08-26T05:21:23.424Z,50.72
2022-08-26T05:26:27.019Z,36.85
2022-08-26T05:31:31.708Z,39.17
2022-08-26T05:36:35.473Z,34.33
2022-08-26T05:41:40.792Z,41.75
2022-08-26T05:46:44.007Z,41.25
2022-08-26T05:51:47.530Z,39.97
2022-08-26T05:56:51.317Z,35.88
2022-08-26T06:01:54.966Z,43.65
2022-08-26T06:06:57.637Z,29.00
2022-08-26T06:12:01.827Z,34.00
2022-08-26T06:17:03.806Z,50.80
2022-08-26T06:22:25.506Z,31.25
2022-08-26T06:27:32.140Z,53.10
2022-08-26T06:32:34.611Z,38.60
2022-08-26T06:37:36.849Z,33.35
2022-08-26T06:42:38.735Z,34.67
2022-08-26T06:47:40.951Z,27.92
2022-08-26T06:52:42.670Z,31.10
2022-08-26T06:57:44.288Z,27.15
2022-08-26T07:02:46.954Z,30.48
2022-08-26T07:07:48.990Z,29.05
2022-08-26T07:12:51.517Z,30.98
2022-08-26T07:17:53.151Z,30.90
2022-08-26T07:22:54.851Z,29.48
2022-08-26T07:27:56.517Z,23.60
2022-08-26T07:32:59.311Z,32.05
2022-08-26T07:38:01.699Z,35.65
2022-08-26T07:43:04.007Z,26.10
2022-08-26T07:48:05.963Z,29.38
2022-08-26T07:53:07.731Z,32.65
2022-08-26T07:58:12.465Z,30.63
2022-08-26T08:03:15.173Z,30.95
2022-08-26T08:08:26.795Z,25.80
2022-08-26T08:13:30.634Z,26.20
2022-08-26T08:18:33.724Z,27.13
2022-08-26T08:23:35.922Z,22.52
2022-08-26T08:28:38.931Z,31.67
2022-08-26T08:33:40.585Z,31.02
2022-08-26T08:38:44.450Z,32.58
2022-08-26T08:43:47.464Z,31.58
2022-08-26T08:48:57.323Z,32.72
2022-08-26T08:54:00.633Z,35.70
2022-08-26T08:59:09.824Z,27.83
2022-08-26T09:04:28.730Z,33.13
2022-08-26T09:09:39.241Z,31.17
2022-08-26T09:14:41.131Z,29.92
2022-08-26T09:20:06.110Z,35.85
2022-08-26T09:25:12.170Z,31.40
2022-08-26T09:30:23.361Z,48.03
2022-08-26T09:35:27.958Z,39.28
2022-08-26T09:40:34.882Z,48.60
2022-08-26T09:45:39.063Z,38.67
2022-08-26T09:51:03.616Z,36.15
2022-08-26T09:56:27.549Z,35.78
2022-08-26T10:01:42.357Z,33.90
2022-08-26T10:07:05.942Z,44.95
2022-08-26T10:12:13.384Z,33.47
2022-08-26T10:17:28.325Z,38.08
2022-08-26T10:22:44.501Z,31.40
2022-08-26T10:28:04.760Z,25.52
2022-08-26T10:33:13.378Z,16.45
2022-08-26T10:38:18.916Z,26.02
2022-08-26T10:43:35.778Z,20.60
2022-08-26T10:48:59.981Z,19.35
2022-08-26T10:54:04.855Z,14.82
2022-08-26T10:59:40.030Z,18.58
2022-08-26T11:04:53.575Z,12.07
2022-08-26T11:09:56.030Z,12.27
2022-08-26T11:14:59.390Z,9.32
2022-08-26T11:20:03.964Z,9.93
2022-08-26T11:25:16.163Z,10.35
2022-08-26T11:30:20.230Z,13.82
2022-08-26T11:35:24.649Z,13.88
2022-08-26T11:40:37.701Z,9.85
2022-08-26T11:45:44.930Z,20.67
2022-08-26T11:51:16.310Z,51.80
2022-08-26T11:56:31.622Z,11.45
2022-08-26T12:01:39.977Z,21.05
2022-08-26T12:06:51.014Z,28.70
2022-08-26T12:11:57.942Z,24.88
2022-08-26T12:17:10.450Z,18.70
2022-08-26T12:22:32.200Z,14.75
2022-08-26T12:27:42.443Z,17.42
2022-08-26T12:32:56.649Z,15.63
2022-08-26T12:38:00.445Z,20.52
2022-08-26T12:43:04.930Z,21.05
2022-08-26T12:48:13.555Z,18.65
2022-08-26T12:53:24.395Z,19.20
2022-08-26T12:58:39.457Z,18.38
2022-08-26T13:03:45.372Z,15.05
2022-08-26T13:08:56.920Z,11.95
2022-08-26T13:14:07.583Z,17.17
2022-08-26T13:19:12.161Z,17.90
2022-08-26T13:24:17.393Z,16.58
2022-08-26T13:29:19.433Z,11.88
2022-08-26T13:34:23.039Z,9.93
2022-08-26T13:39:26.313Z,12.45
2022-08-26T13:44:28.029Z,11.63
2022-08-26T13:49:29.723Z,11.77
2022-08-26T13:54:31.404Z,12.90
2022-08-26T13:59:33.056Z,14.65
2022-08-26T14:04:34.689Z,17.65
2022-08-26T14:09:38.372Z,16.58
2022-08-26T14:14:40.186Z,9.25
2022-08-26T14:19:46.056Z,10.95
2022-08-26T14:24:48.717Z,9.55
2022-08-26T14:29:50.601Z,10.82
2022-08-26T14:34:52.813Z,12.65
2022-08-26T14:39:54.487Z,13.18
2022-08-26T14:45:01.979Z,13.95
2022-08-26T14:50:04.530Z,14.05
2022-08-26T14:55:06.478Z,12.02
2022-08-26T15:00:08.940Z,15.00
2022-08-26T15:05:11.671Z,12.15
2022-08-26T15:10:16.123Z,11.48
2022-08-26T15:15:18.637Z,11.18
2022-08-26T15:20:20.413Z,18.20
2022-08-26T15:25:22.244Z,15.13
2022-08-26T15:30:23.975Z,8.48
2022-08-26T15:35:25.655Z,6.57
2022-08-26T15:40:27.380Z,10.68
2022-08-26T15:45:29.116Z,12.95
2022-08-26T15:50:30.929Z,11.95
2022-08-26T15:55:32.548Z,12.02
2022-08-26T16:00:34.211Z,13.70
2022-08-26T16:05:38.039Z,10.35
2022-08-26T16:10:45.445Z,10.20
2022-08-26T16:15:51.103Z,12.90
2022-08-26T16:21:12.866Z,8.90
2022-08-26T16:26:24.312Z,20.10
2022-08-26T16:31:26.225Z,16.17
2022-08-26T16:36:28.066Z,13.63
2022-08-26T16:41:31.604Z,10.50
2022-08-26T16:46:34.266Z,14.82
2022-08-26T16:51:38.137Z,18.63
2022-08-26T16:56:40.059Z,18.83
2022-08-26T17:01:41.799Z,21.67
2022-08-26T17:06:43.450Z,17.42
2022-08-26T17:11:45.189Z,26.77
2022-08-26T17:16:47.170Z,11.00
2022-08-26T17:21:49.249Z,17.42
2022-08-26T17:26:55.539Z,17.80
2022-08-26T17:31:57.496Z,18.63
2022-08-26T17:36:59.531Z,13.82
2022-08-26T17:42:01.203Z,11.18
2022-08-26T17:47:02.923Z,17.50
2022-08-26T17:52:09.618Z,22.33
2022-08-26T17:57:13.040Z,20.98
2022-08-26T18:02:14.766Z,16.27
2022-08-26T18:07:17.337Z,20.95
2022-08-26T18:12:18.978Z,15.18
2022-08-26T18:17:20.693Z,20.98
2022-08-26T18:22:23.288Z,10.52
2022-08-26T18:27:24.965Z,15.65
2022-08-26T18:32:26.630Z,13.10
2022-08-26T18:37:31.424Z,15.32
2022-08-26T18:42:33.683Z,20.63
2022-08-26T18:47:35.846Z,21.00
2022-08-26T18:52:37.858Z,27.05
2022-08-26T18:57:39.750Z,19.58
2022-08-26T19:02:41.476Z,20.25
2022-08-26T19:07:47.894Z,19.77
2022-08-26T19:12:52.117Z,18.50
2022-08-26T19:17:54.136Z,24.23
2022-08-26T19:22:57.568Z,16.92
2022-08-26T19:28:04.247Z,18.23
2022-08-26T19:33:09.995Z,15.35
2022-08-26T19:38:12.069Z,29.23
2022-08-26T19:43:13.746Z,19.85
2022-08-26T19:48:16.273Z,18.55
2022-08-26T19:53:17.928Z,23.77
2022-08-26T19:58:19.587Z,23.40
2022-08-26T20:03:23.757Z,13.43
2022-08-26T20:08:25.586Z,15.85
2022-08-26T20:13:28.295Z,19.85
2022-08-26T20:18:48.467Z,20.50
2022-08-26T20:23:51.468Z,17.70
2022-08-26T20:28:53.741Z,15.70
2022-08-26T20:33:55.751Z,13.13
2022-08-26T20:38:58.199Z,23.73
2022-08-26T20:44:00.441Z,11.23
2022-08-26T20:49:03.109Z,14.93
2022-08-26T20:54:07.849Z,17.80
2022-08-26T20:59:10.028Z,24.73
2022-08-26T21:04:17.719Z,16.83
2022-08-26T21:09:19.439Z,24.05
2022-08-26T21:14:25.652Z,18.27
2022-08-26T21:19:27.689Z,18.20
2022-08-26T21:24:29.410Z,18.85
2022-08-26T21:29:31.119Z,13.95
2022-08-26T21:34:32.811Z,22.17
2022-08-26T21:39:34.449Z,18.52
2022-08-26T21:44:36.222Z,19.10
2022-08-26T21:49:37.906Z,23.58
2022-08-26T21:54:39.886Z,25.20
2022-08-26T21:59:52.443Z,19.08
2022-08-26T22:04:54.153Z,28.40
2022-08-26T22:09:56.216Z,27.73
2022-08-26T22:14:57.891Z,14.52
2022-08-26T22:19:59.594Z,17.00
2022-08-26T22:25:02.019Z,18.20
2022-08-26T22:30:04.115Z,16.08
2022-08-26T22:35:28.211Z,17.60
2022-08-26T22:40:28.408Z,16.23
2022-08-26T22:45:31.782Z,14.80
2022-08-26T22:50:33.518Z,21.95
2022-08-26T22:55:36.204Z,16.45
2022-08-26T23:00:38.919Z,18.23
2022-08-26T23:05:42.207Z,14.68
2022-08-26T23:10:45.800Z,16.35
2022-08-26T23:15:47.608Z,14.10
2022-08-26T23:20:49.254Z,14.95
2022-08-26T23:25:50.968Z,18.00
2022-08-26T23:30:53.723Z,16.15
2022-08-26T23:35:55.430Z,15.07
2022-08-26T23:40:57.103Z,18.58
2022-08-26T23:45:59.015Z,11.00
2022-08-26T23:51:19.138Z,16.58
2022-08-26T23:56:20.932Z,10.18
